Time;durP1;ratioP1;P1;durP2;ratioP2;P2;SDS_P1;SDS_P2;PMS_P1;PMS_P2;Temp;Humidity;BMP_temperature;BMP_pressure;BME280_temperature;BME280_humidity;BME280_pressure;Samples;Min_cycle;Max_cycle;Signal;HPM_P1;HPM_P2
2023/09/18 00:01:36;;;;;;;;;1.25;1.25;;;;;24.46;55.50;100147.00;4939899;28;45354;-34
2023/09/18 00:04:01;;;;;;;;;2.00;2.00;;;;;24.42;55.56;100143.75;4956949;28;45371;-35
2023/09/18 00:06:26;;;;;;;;;2.00;2.00;;;;;24.41;55.67;100149.19;4956771;28;47723;-34
2023/09/18 00:08:53;;;;;;;;;3.75;2.25;;;;;24.37;56.16;100149.44;4956748;28;53020;-36
2023/09/18 00:11:18;;;;;;;;;2.00;2.00;;;;;24.35;55.78;100151.38;4957315;28;45253;-34
2023/09/18 00:13:43;;;;;;;;;1.50;1.50;;;;;24.33;56.08;100163.88;4956640;28;49429;-34
2023/09/18 00:16:09;;;;;;;;;4.75;1.75;;;;;24.31;56.18;100157.88;4955285;28;60541;-37
2023/09/18 00:18:34;;;;;;;;;1.50;1.25;;;;;24.31;55.86;100157.88;4956576;28;50540;-34
2023/09/18 00:20:59;;;;;;;;;3.50;2.00;;;;;24.32;55.73;100156.91;4956425;28;53500;-35
2023/09/18 00:23:25;;;;;;;;;1.75;1.75;;;;;24.36;56.24;100153.06;4956740;28;45347;-35
2023/09/18 00:25:50;;;;;;;;;2.00;2.00;;;;;24.41;55.84;100154.50;4956720;28;45273;-34
2023/09/18 00:28:15;;;;;;;;;2.00;2.00;;;;;24.46;55.42;100147.00;4956787;28;45320;-35
2023/09/18 00:30:48;;;;;;;;;2.50;1.50;;;;;24.51;55.32;100155.41;4956862;28;48524;-35
2023/09/18 00:33:14;;;;;;;;;1.50;1.50;;;;;24.52;55.66;100157.91;4956469;28;46942;-36
2023/09/18 00:35:39;;;;;;;;;1.00;1.00;;;;;24.55;55.25;100156.81;4956962;28;45394;-37
2023/09/18 00:38:07;;;;;;;;;2.00;2.00;;;;;24.55;55.42;100152.38;4956798;28;45231;-39
2023/09/18 00:40:32;;;;;;;;;2.00;2.00;;;;;24.55;55.63;100155.03;4956709;28;45546;-35
2023/09/18 00:42:58;;;;;;;;;2.00;1.00;;;;;24.55;55.44;100149.72;4956274;28;45303;-34
2023/09/18 00:45:23;;;;;;;;;1.25;1.25;;;;;24.58;55.37;100153.91;4955080;28;45378;-39
2023/09/18 00:47:49;;;;;;;;;3.00;1.25;;;;;24.60;55.44;100151.97;4956699;28;45400;-39
2023/09/18 00:50:15;;;;;;;;;2.00;1.00;;;;;24.62;55.29;100157.16;4957084;28;45808;-35
2023/09/18 00:52:42;;;;;;;;;2.50;1.50;;;;;24.64;54.67;100153.38;4956756;28;46330;-42
2023/09/18 00:55:08;;;;;;;;;1.25;1.25;;;;;24.66;55.13;100145.34;4956504;28;45651;-39
2023/09/18 00:57:34;;;;;;;;;1.00;1.00;;;;;24.68;55.01;100152.22;4956532;28;45395;-38
2023/09/18 00:59:59;;;;;;;;;1.00;1.00;;;;;24.68;55.27;100165.44;4956586;28;45253;-34
2023/09/18 01:02:26;;;;;;;;;1.00;1.00;;;;;24.69;54.51;100175.09;4956302;28;45362;-45
2023/09/18 01:04:51;;;;;;;;;4.75;1.25;;;;;24.70;54.70;100174.13;4956408;28;45722;-34
2023/09/18 01:07:18;;;;;;;;;1.00;1.00;;;;;24.74;54.52;100179.16;4956494;28;45253;-36
2023/09/18 01:09:43;;;;;;;;;3.50;2.00;;;;;24.77;54.71;100181.53;4957202;28;45513;-36
2023/09/18 01:12:33;;;;;;;;;3.00;2.00;;;;;24.78;54.52;100185.88;4959663;28;45616;-35
2023/09/18 01:15:09;;;;;;;;;1.25;1.25;;;;;24.80;54.83;100181.28;4959643;28;45780;-33
2023/09/18 01:17:38;;;;;;;;;1.25;1.25;;;;;24.82;54.16;100174.06;4959760;28;45196;-33
2023/09/18 01:20:05;;;;;;;;;1.25;1.25;;;;;24.84;54.07;100166.81;4959510;28;45407;-37
2023/09/18 01:22:32;;;;;;;;;1.00;1.00;;;;;24.85;54.22;100157.91;4959186;28;47489;-34
2023/09/18 01:24:58;;;;;;;;;1.00;1.00;;;;;24.87;54.43;100155.94;4959636;28;45323;-35
2023/09/18 01:27:23;;;;;;;;;4.75;2.00;;;;;24.86;54.17;100154.25;4959482;28;45355;-36
2023/09/18 01:29:49;;;;;;;;;1.75;1.00;;;;;24.88;53.75;100165.56;4959640;28;45258;-34
2023/09/18 01:32:15;;;;;;;;;1.25;1.00;;;;;24.89;53.85;100161.13;4959539;28;45992;-34
2023/09/18 01:34:52;;;;;;;;;2.00;1.00;;;;;24.90;53.86;100160.16;4959495;28;45485;-34
2023/09/18 01:37:20;;;;;;;;;1.50;1.50;;;;;24.91;54.25;100161.84;4959801;28;45247;-36
2023/09/18 01:39:48;;;;;;;;;0.50;0.50;;;;;24.91;53.62;100162.69;4959743;28;45513;-36
2023/09/18 01:42:14;;;;;;;;;1.50;1.25;;;;;24.93;53.54;100166.03;4959293;28;45564;-34
2023/09/18 01:44:40;;;;;;;;;2.25;1.00;;;;;24.93;53.37;100166.03;4959168;28;45265;-35
2023/09/18 01:47:11;;;;;;;;;2.00;2.00;;;;;24.94;53.42;100161.56;4959053;28;45246;-36
2023/09/18 01:49:38;;;;;;;;;2.00;0.00;;;;;24.95;53.88;100164.09;4941418;28;45351;-36
2023/09/18 01:52:05;;;;;;;;;1.00;1.00;;;;;24.95;53.59;100156.16;4958913;28;46377;-35
2023/09/18 01:54:31;;;;;;;;;3.75;0.50;;;;;24.96;53.58;100155.19;4958979;28;45798;-34
2023/09/18 01:56:57;;;;;;;;;0.75;0.75;;;;;24.96;53.11;100149.03;4959117;28;45355;-34
2023/09/18 01:59:24;;;;;;;;;1.00;1.00;;;;;24.97;53.42;100156.00;4959142;28;45427;-34
2023/09/18 02:01:50;;;;;;;;;1.00;1.00;;;;;24.98;53.62;100155.03;4958901;28;46198;-34
2023/09/18 02:04:15;;;;;;;;;0.00;0.00;;;;;24.98;53.13;100155.03;4959248;28;45454;-34
2023/09/18 02:06:41;;;;;;;;;1.00;1.00;;;;;24.96;53.39;100159.63;4958873;28;45428;-34
2023/09/18 02:09:10;;;;;;;;;2.75;1.00;;;;;24.98;53.37;100153.22;4959036;28;45331;-34
2023/09/18 02:11:41;;;;;;;;;2.25;1.25;;;;;24.97;53.08;100162.13;4958528;28;46379;-34
2023/09/18 02:14:07;;;;;;;;;1.00;1.00;;;;;24.96;53.03;100165.78;4957413;28;45751;-35
2023/09/18 02:16:46;;;;;;;;;1.00;1.00;;;;;24.97;53.22;100166.63;4958874;28;45339;-33
2023/09/18 02:19:13;;;;;;;;;0.00;0.00;;;;;24.96;53.31;100171.09;4958802;28;45481;-37
2023/09/18 02:21:39;;;;;;;;;3.00;2.00;;;;;24.95;52.95;100174.72;4957985;28;45583;-35
2023/09/18 02:24:05;;;;;;;;;0.00;0.00;;;;;24.93;52.90;100168.69;4958461;28;45456;-34
2023/09/18 02:26:30;;;;;;;;;1.00;1.00;;;;;24.93;52.84;100178.44;4958589;28;45441;-34
2023/09/18 02:29:00;;;;;;;;;1.00;1.00;;;;;24.93;53.38;100181.94;4958714;28;45429;-36
2023/09/18 02:31:25;;;;;;;;;1.00;1.00;;;;;24.92;53.23;100174.97;4958544;28;46890;-37
2023/09/18 02:33:50;;;;;;;;;1.00;1.00;;;;;24.93;52.70;100178.44;4958575;28;45491;-35
2023/09/18 02:36:16;;;;;;;;;1.00;1.00;;;;;24.92;53.35;100180.25;4958885;28;45754;-35
2023/09/18 02:38:41;;;;;;;;;0.00;0.00;;;;;24.92;52.93;100182.91;4958453;28;45569;-36
2023/09/18 02:41:07;;;;;;;;;2.00;1.00;;;;;24.92;53.03;100180.25;4958150;28;46142;-33
2023/09/18 02:43:32;;;;;;;;;1.00;1.00;;;;;24.91;53.04;100183.88;4958074;28;45421;-37
2023/09/18 02:45:57;;;;;;;;;1.50;1.00;;;;;24.92;53.10;100190.88;4957733;28;60322;-37
2023/09/18 02:48:23;;;;;;;;;3.00;1.00;;;;;24.92;53.13;100185.56;4958134;28;45488;-36
2023/09/18 02:50:48;;;;;;;;;1.00;1.00;;;;;24.92;53.14;100185.56;4958290;28;45740;-35
2023/09/18 02:53:17;;;;;;;;;1.00;1.00;;;;;24.93;52.65;100183.75;4957925;28;46671;-35
2023/09/18 02:55:43;;;;;;;;;2.75;1.00;;;;;24.93;53.05;100181.94;4958234;28;45391;-34
2023/09/18 02:58:10;;;;;;;;;0.75;0.75;;;;;24.94;52.59;100185.41;4958273;28;45642;-34
2023/09/18 03:00:40;;;;;;;;;0.50;0.25;;;;;24.92;52.83;100180.25;4957878;28;45464;-34
2023/09/18 03:03:06;;;;;;;;;1.00;1.00;;;;;24.92;52.98;100174.97;4940421;28;45393;-36
2023/09/18 03:05:31;;;;;;;;;1.00;1.00;;;;;24.92;52.80;100167.00;4958041;28;45384;-35
2023/09/18 03:07:56;;;;;;;;;2.00;1.00;;;;;24.89;52.51;100161.97;4958163;28;45509;-36
2023/09/18 03:10:22;;;;;;;;;1.00;1.00;;;;;24.90;52.87;100161.00;4957552;28;61805;-35
2023/09/18 03:12:48;;;;;;;;;0.25;0.25;;;;;24.90;52.62;100166.28;4957775;28;48773;-41
2023/09/18 03:15:13;;;;;;;;;1.00;1.00;;;;;24.90;52.79;100161.00;4957951;28;45240;-36
2023/09/18 03:17:40;;;;;;;;;1.75;1.75;;;;;24.91;53.21;100152.06;4940724;28;45197;-38
2023/09/18 03:20:07;;;;;;;;;1.75;1.00;;;;;24.89;53.03;100156.66;4957499;28;46021;-36
2023/09/18 03:22:32;;;;;;;;;1.00;1.00;;;;;24.90;53.10;100155.69;4957761;28;45288;-36
2023/09/18 03:24:57;;;;;;;;;1.50;1.00;;;;;24.90;52.78;100150.38;4940415;28;45383;-36
2023/09/18 03:27:28;;;;;;;;;0.00;0.00;;;;;24.89;52.77;100147.88;4957859;28;46980;-35
2023/09/18 03:29:54;;;;;;;;;1.50;1.00;;;;;24.90;52.89;100149.56;4957807;28;46259;-35
2023/09/18 03:32:19;;;;;;;;;1.00;1.00;;;;;24.89;52.80;100146.06;4957149;28;45237;-35
2023/09/18 03:34:44;;;;;;;;;1.00;1.00;;;;;24.91;53.02;100149.41;4957210;28;48250;-34
2023/09/18 03:37:10;;;;;;;;;1.00;1.00;;;;;24.91;53.00;100151.25;4957874;28;45414;-34
2023/09/18 03:39:35;;;;;;;;;1.25;1.25;;;;;24.90;52.95;100145.09;4955913;28;46141;-42
2023/09/18 03:42:00;;;;;;;;;1.25;1.25;;;;;24.90;52.94;100150.38;4956688;28;64674;-43
2023/09/18 03:44:25;;;;;;;;;2.00;2.00;;;;;24.91;52.60;100146.78;4957405;28;45228;-42
2023/09/18 03:46:51;;;;;;;;;1.00;1.00;;;;;24.92;52.83;100151.09;4957773;28;45305;-45
2023/09/18 03:49:16;;;;;;;;;1.75;1.75;;;;;24.92;52.92;100148.44;4957258;28;45378;-34
2023/09/18 03:51:41;;;;;;;;;3.00;1.75;;;;;24.90;53.04;100145.09;4956449;28;57333;-35
2023/09/18 03:54:06;;;;;;;;;0.75;0.75;;;;;24.91;52.72;100146.78;4957032;28;52557;-36
2023/09/18 03:56:32;;;;;;;;;1.00;1.00;;;;;24.90;53.00;100142.44;4956513;28;59695;-35
2023/09/18 03:59:00;;;;;;;;;2.25;0.25;;;;;24.88;52.48;100141.72;4956551;28;55436;-36
2023/09/18 04:01:26;;;;;;;;;1.50;1.25;;;;;24.86;52.47;100135.72;4939732;28;45556;-36
2023/09/18 04:03:51;;;;;;;;;1.00;1.00;;;;;24.85;52.51;100129.56;4957511;28;45415;-34
2023/09/18 04:06:20;;;;;;;;;1.50;1.50;;;;;24.84;52.76;100132.38;4957391;28;45425;-34
2023/09/18 04:08:45;;;;;;;;;1.00;1.00;;;;;24.84;52.78;100132.38;4956918;28;46186;-34
2023/09/18 04:11:11;;;;;;;;;1.75;1.75;;;;;24.84;52.51;100135.84;4957133;28;45465;-37
2023/09/18 04:13:37;;;;;;;;;2.25;1.25;;;;;24.83;52.64;100138.63;4957031;28;45266;-39
2023/09/18 04:16:03;;;;;;;;;2.00;2.00;;;;;24.83;52.44;100134.16;4957243;28;45509;-37
2023/09/18 04:18:29;;;;;;;;;3.00;1.00;;;;;24.83;52.58;100141.28;4956754;28;46906;-39
2023/09/18 04:20:54;;;;;;;;;1.00;1.00;;;;;24.82;52.98;100140.44;4955852;28;45367;-39
2023/09/18 04:23:26;;;;;;;;;5.00;2.00;;;;;24.82;52.38;100142.25;4957029;28;45282;-36
2023/09/18 04:25:54;;;;;;;;;1.00;1.00;;;;;24.82;52.29;100136.97;4957110;28;45505;-35
2023/09/18 04:28:23;;;;;;;;;1.50;1.50;;;;;24.83;52.67;100136.00;4956556;28;46344;-37
2023/09/18 04:30:49;;;;;;;;;1.50;1.50;;;;;24.81;53.00;100135.28;4956813;28;45184;-43
2023/09/18 04:33:15;;;;;;;;;1.00;1.00;;;;;24.81;52.69;100132.63;4956811;28;45318;-44
2023/09/18 04:35:40;;;;;;;;;3.75;1.25;;;;;24.81;52.27;100140.56;4956948;28;45557;-44
2023/09/18 04:38:08;;;;;;;;;2.25;1.00;;;;;24.82;52.67;100139.59;4956586;28;46002;-35
2023/09/18 04:40:34;;;;;;;;;2.00;2.00;;;;;24.81;52.89;100129.97;4956548;28;45343;-35
2023/09/18 04:43:00;;;;;;;;;2.25;2.25;;;;;24.82;52.69;100131.66;4956485;28;45335;-37
2023/09/18 04:45:25;;;;;;;;;2.25;2.25;;;;;24.83;52.40;100134.16;4959837;28;45402;-34
2023/09/18 04:47:51;;;;;;;;;2.00;1.50;;;;;24.83;52.48;100136.00;4959767;28;45393;-35
2023/09/18 04:50:17;;;;;;;;;2.50;2.00;;;;;24.81;52.58;100140.56;4942474;28;45355;-34
2023/09/18 04:52:43;;;;;;;;;2.50;2.50;;;;;24.80;52.55;100141.53;4942568;28;45354;-34
2023/09/18 04:55:08;;;;;;;;;1.50;1.50;;;;;24.77;52.49;100140.00;4960429;28;45837;-36
2023/09/18 04:57:34;;;;;;;;;3.00;1.75;;;;;24.76;52.30;100142.75;4959803;28;46206;-38
2023/09/18 05:00:00;;;;;;;;;2.00;2.00;;;;;24.76;52.37;100137.47;4959707;28;45444;-38
2023/09/18 05:02:25;;;;;;;;;4.00;3.00;;;;;24.74;52.65;100144.72;4960214;28;45294;-38
2023/09/18 05:04:51;;;;;;;;;3.00;1.00;;;;;24.70;52.12;100141.47;4942607;28;45633;-35
2023/09/18 05:07:17;;;;;;;;;3.00;3.00;;;;;24.68;52.87;100141.59;4959682;28;45333;-37
2023/09/18 05:09:42;;;;;;;;;3.00;2.00;;;;;24.68;52.88;100146.06;4959527;28;45463;-35
2023/09/18 05:12:13;;;;;;;;;1.25;1.25;;;;;24.66;52.43;100135.56;4959892;28;45466;-35
2023/09/18 05:14:41;;;;;;;;;2.00;2.00;;;;;24.66;52.91;100140.84;4959736;28;45386;-35
2023/09/18 05:17:13;;;;;;;;;2.00;2.00;;;;;24.64;52.31;100136.66;4959538;28;46086;-35
2023/09/18 05:19:39;;;;;;;;;4.75;3.50;;;;;24.62;52.88;100142.09;4959582;28;45516;-34
2023/09/18 05:22:04;;;;;;;;;3.25;3.00;;;;;24.61;52.68;100134.25;4959693;28;45294;-34
2023/09/18 05:24:29;;;;;;;;;3.75;2.75;;;;;24.60;52.72;100144.03;4960036;28;45232;-35
2023/09/18 05:26:55;;;;;;;;;2.50;2.50;;;;;24.60;52.28;100133.44;4959382;28;49932;-34
2023/09/18 05:29:20;;;;;;;;;4.25;3.00;;;;;24.59;52.80;100142.34;4959481;28;45897;-34
2023/09/18 05:31:46;;;;;;;;;2.00;2.00;;;;;24.59;52.60;100145.00;4959237;28;45933;-34
2023/09/18 05:34:12;;;;;;;;;6.00;2.00;;;;;24.58;52.65;100153.09;4959505;28;45359;-34
2023/09/18 05:36:37;;;;;;;;;2.75;2.75;;;;;24.57;52.88;100149.59;4959441;28;45746;-35
2023/09/18 05:39:03;;;;;;;;;4.00;2.00;;;;;24.57;52.42;100152.22;4959111;28;45513;-34
2023/09/18 05:41:29;;;;;;;;;1.50;1.50;;;;;24.55;52.58;100147.06;4958455;28;45465;-34
2023/09/18 05:43:56;;;;;;;;;5.00;3.00;;;;;24.54;52.71;100149.84;4959170;28;45438;-36
2023/09/18 05:46:21;;;;;;;;;3.00;2.00;;;;;24.53;52.71;100142.84;4959117;28;45995;-34
2023/09/18 05:48:47;;;;;;;;;3.00;3.00;;;;;24.53;52.29;100137.56;4958993;28;45802;-34
2023/09/18 05:51:12;;;;;;;;;2.00;2.00;;;;;24.51;52.28;100136.88;4958595;28;60133;-34
2023/09/18 05:53:38;;;;;;;;;0.25;0.25;;;;;24.51;52.32;100136.88;4958627;28;56919;-34
2023/09/18 05:56:04;;;;;;;;;3.00;3.00;;;;;24.49;52.88;100144.09;4958245;28;47046;-36
2023/09/18 05:58:31;;;;;;;;;2.50;2.00;;;;;24.49;52.58;100150.22;4959312;28;45864;-34
2023/09/18 06:01:00;;;;;;;;;5.50;3.00;;;;;24.48;52.35;100156.47;4959134;28;45739;-40
2023/09/18 06:03:30;;;;;;;;;2.50;2.00;;;;;24.48;52.55;100159.13;4959312;28;45293;-40
2023/09/18 06:05:55;;;;;;;;;4.00;3.00;;;;;24.49;52.62;100160.00;4958852;28;46926;-34
2023/09/18 06:08:21;;;;;;;;;2.00;2.00;;;;;24.48;52.93;100166.25;4958831;28;45398;-36
2023/09/18 06:10:46;;;;;;;;;4.00;4.00;;;;;24.47;52.99;100165.41;4957305;28;45337;-34
2023/09/18 06:13:12;;;;;;;;;4.50;3.00;;;;;24.46;53.13;100169.03;4959052;28;45270;-34
2023/09/18 06:15:40;;;;;;;;;2.25;2.00;;;;;24.46;52.63;100173.47;4941012;28;53845;-37
2023/09/18 06:18:06;;;;;;;;;4.25;3.25;;;;;24.46;53.02;100170.81;4941169;28;45734;-36
2023/09/18 06:20:32;;;;;;;;;4.75;2.50;;;;;24.44;52.89;100168.31;4959058;28;45551;-35
2023/09/18 06:22:57;;;;;;;;;2.50;2.50;;;;;24.45;52.90;100179.75;4958886;28;45487;-36
2023/09/18 06:25:22;;;;;;;;;3.00;3.00;;;;;24.45;52.76;100177.09;4941080;28;46286;-34
2023/09/18 06:27:48;;;;;;;;;3.00;3.00;;;;;24.44;53.19;100186.00;4958536;28;45184;-36
2023/09/18 06:30:14;;;;;;;;;2.75;2.75;;;;;24.47;53.27;100196.34;4958896;28;45835;-41
2023/09/18 06:32:39;;;;;;;;;4.00;3.00;;;;;24.50;52.65;100196.09;4957951;28;45471;-35
2023/09/18 06:35:04;;;;;;;;;5.00;4.00;;;;;24.52;52.92;100195.00;4958602;28;45903;-36
2023/09/18 06:37:30;;;;;;;;;4.75;3.00;;;;;24.54;53.19;100181.63;4958735;28;45358;-39
2023/09/18 06:39:56;;;;;;;;;4.00;4.00;;;;;24.55;52.94;100183.31;4957831;28;62390;-41
2023/09/18 06:42:22;;;;;;;;;1.00;1.00;;;;;24.55;52.63;100170.91;4958676;28;45505;-34
2023/09/18 06:44:47;;;;;;;;;3.00;3.00;;;;;24.55;52.86;100175.34;4958371;28;45215;-36
2023/09/18 06:47:12;;;;;;;;;3.00;2.75;;;;;24.54;53.09;100173.69;4958392;28;45458;-36
2023/09/18 06:49:38;;;;;;;;;3.00;2.75;;;;;24.51;52.99;100173.94;4958357;28;45354;-36
2023/09/18 06:52:04;;;;;;;;;5.00;3.00;;;;;24.52;53.04;100175.63;4958802;28;45303;-36
2023/09/18 06:54:29;;;;;;;;;4.00;4.00;;;;;24.51;52.88;100179.25;4958083;28;46252;-36
2023/09/18 06:56:54;;;;;;;;;6.00;4.00;;;;;24.51;52.82;100166.00;4958003;28;47802;-35
2023/09/18 06:59:20;;;;;;;;;5.25;4.00;;;;;24.51;52.86;100171.31;4957909;28;45422;-35
2023/09/18 07:01:45;;;;;;;;;6.00;6.00;;;;;24.51;52.75;100179.25;4957676;28;45426;-35
2023/09/18 07:04:10;;;;;;;;;2.25;2.25;;;;;24.52;53.12;100180.94;4957336;28;50811;-35
2023/09/18 07:06:37;;;;;;;;;5.25;5.25;;;;;24.53;53.24;100182.59;4957723;28;45710;-36
2023/09/18 07:09:04;;;;;;;;;5.00;4.50;;;;;24.54;52.82;100189.56;4957009;28;45417;-36
2023/09/18 07:11:29;;;;;;;;;4.00;3.25;;;;;24.54;53.12;100202.81;4957763;28;45267;-44
2023/09/18 07:13:55;;;;;;;;;7.00;4.25;;;;;24.57;52.81;100204.38;4957985;28;45822;-36
2023/09/18 07:16:20;;;;;;;;;5.50;4.50;;;;;24.57;53.19;100202.56;4957676;28;55984;-43
2023/09/18 07:18:45;;;;;;;;;5.25;5.00;;;;;24.57;53.25;100205.22;4957687;28;56523;-41
2023/09/18 07:21:11;;;;;;;;;6.00;5.00;;;;;24.58;52.49;100203.44;4958223;28;45332;-35
2023/09/18 07:23:37;;;;;;;;;4.75;4.00;;;;;24.58;52.89;100209.56;4958047;28;47107;-35
2023/09/18 07:26:03;;;;;;;;;5.00;5.00;;;;;24.58;52.70;100212.19;4957825;28;45280;-37
2023/09/18 07:28:28;;;;;;;;;4.00;4.00;;;;;24.60;53.27;100212.06;4957914;28;45382;-34
2023/09/18 07:30:53;;;;;;;;;7.75;5.25;;;;;24.60;52.53;100212.91;4957454;28;49926;-36
2023/09/18 07:33:19;;;;;;;;;5.00;5.00;;;;;24.60;52.76;100223.53;4957504;28;46380;-34
2023/09/18 07:35:47;;;;;;;;;5.00;4.50;;;;;24.62;53.14;100224.25;4957600;28;45726;-37
2023/09/18 07:38:12;;;;;;;;;4.00;4.00;;;;;24.63;52.86;100211.81;4957871;28;45487;-34
2023/09/18 07:40:38;;;;;;;;;4.25;4.00;;;;;24.62;52.38;100216.28;4957566;28;52386;-35
2023/09/18 07:43:03;;;;;;;;;6.00;4.50;;;;;24.63;52.54;100223.28;4957708;28;45199;-35
2023/09/18 07:45:28;;;;;;;;;7.75;5.00;;;;;24.63;52.99;100222.41;4957684;28;45288;-34
2023/09/18 07:47:53;;;;;;;;;4.50;4.50;;;;;24.63;52.44;100212.69;4957666;28;45363;-36
2023/09/18 07:50:19;;;;;;;;;6.75;5.25;;;;;24.64;52.77;100222.28;4957147;28;55560;-36
2023/09/18 07:52:44;;;;;;;;;3.00;3.00;;;;;24.64;52.69;100224.94;4957102;28;58566;-39
2023/09/18 07:55:09;;;;;;;;;6.00;5.00;;;;;24.65;53.05;100216.00;4957467;28;45343;-34
2023/09/18 07:57:35;;;;;;;;;4.50;4.50;;;;;24.62;52.39;100229.53;4940636;28;45275;-35
2023/09/18 08:00:13;;;;;;;;;5.00;4.50;;;;;24.56;53.05;100219.44;4940251;28;45295;-37
2023/09/18 08:02:41;;;;;;;;;7.50;5.00;;;;;24.50;52.61;100222.59;4957787;28;47259;-39
2023/09/18 08:05:08;;;;;;;;;5.00;5.00;;;;;24.48;52.99;100224.53;4972621;28;45417;-38
2023/09/18 08:07:36;;;;;;;;;7.00;4.50;;;;;24.44;52.84;100217.78;4957627;28;45308;-35
2023/09/18 08:10:08;;;;;;;;;5.00;5.00;;;;;24.41;52.91;100215.41;4957686;28;45300;-39
2023/09/18 08:12:37;;;;;;;;;5.50;4.75;;;;;24.39;53.19;100216.38;4972320;28;46198;-34
2023/09/18 08:15:02;;;;;;;;;7.25;6.25;;;;;24.37;53.04;100209.50;4972295;28;45575;-38
2023/09/18 08:17:28;;;;;;;;;6.25;6.25;;;;;24.36;52.69;100219.25;4957328;28;45525;-39
2023/09/18 08:19:54;;;;;;;;;3.50;3.50;;;;;24.34;52.52;100223.00;4956974;28;45526;-37
2023/09/18 08:22:20;;;;;;;;;7.00;5.00;;;;;24.31;52.71;100218.78;4957218;28;45408;-35
2023/09/18 08:24:50;;;;;;;;;5.00;5.00;;;;;24.28;52.69;100219.06;4957128;28;45748;-37
2023/09/18 08:27:18;;;;;;;;;5.25;4.50;;;;;24.28;52.93;100224.34;4957385;28;45410;-40
2023/09/18 08:29:47;;;;;;;;;5.75;4.75;;;;;24.28;52.64;100223.50;4957217;28;45501;-38
2023/09/18 08:32:12;;;;;;;;;6.25;5.00;;;;;24.29;52.66;100215.44;4956861;28;47042;-35
2023/09/18 08:34:37;;;;;;;;;4.00;4.00;;;;;24.32;52.55;100224.94;4957253;28;45437;-46
2023/09/18 19:11:58;;;;;;;;;2.00;2.00;;;;;25.00;48.80;100525.09;5923624;23;46479;-42
2023/09/18 19:14:26;;;;;;;;;3.00;2.50;;;;;24.99;49.13;100527.88;4938384;28;46556;-44
2023/09/18 19:16:51;;;;;;;;;5.00;3.00;;;;;24.99;48.94;100533.19;4938662;28;45737;-44
2023/09/18 19:19:16;;;;;;;;;3.00;2.00;;;;;24.98;48.49;100540.28;4937079;28;45556;-45
2023/09/18 19:21:42;;;;;;;;;3.50;2.50;;;;;24.97;48.26;100543.91;4938601;28;45329;-45
2023/09/18 19:24:07;;;;;;;;;1.25;1.25;;;;;24.96;48.76;100539.59;4920208;28;48212;-46
2023/09/18 19:26:33;;;;;;;;;3.50;3.00;;;;;24.95;48.60;100540.53;4953003;28;45741;-48
2023/09/18 19:28:59;;;;;;;;;2.50;2.50;;;;;24.96;48.90;100554.63;4937724;28;50662;-46
2023/09/18 19:31:24;;;;;;;;;2.00;2.00;;;;;24.95;48.67;100558.25;4938037;28;45792;-46
2023/09/18 19:33:49;;;;;;;;;4.00;1.50;;;;;24.97;48.92;100564.28;4937228;28;63962;-47
2023/09/18 19:36:15;;;;;;;;;2.50;2.00;;;;;24.95;48.38;100567.06;4951862;28;59037;-41
2023/09/18 19:38:40;;;;;;;;;2.25;1.75;;;;;24.95;48.81;100571.50;4953047;28;45379;-44
2023/09/18 19:41:06;;;;;;;;;2.25;1.00;;;;;24.96;48.51;100578.50;4937842;28;45248;-45
2023/09/18 19:43:32;;;;;;;;;2.00;2.00;;;;;24.96;48.04;100587.31;4937728;28;45245;-50
2023/09/18 19:45:57;;;;;;;;;4.00;3.00;;;;;24.96;48.74;100591.75;4937846;28;45512;-43
2023/09/18 19:48:23;;;;;;;;;3.50;2.00;;;;;24.96;48.31;100600.56;4937472;28;45382;-41
2023/09/18 19:50:50;;;;;;;;;1.00;1.00;;;;;24.95;48.27;100593.56;4938079;28;45507;-44
2023/09/18 19:53:16;;;;;;;;;2.00;2.00;;;;;24.95;48.44;100601.53;4937366;28;46371;-40
2023/09/18 19:55:41;;;;;;;;;2.00;2.00;;;;;24.95;48.06;100611.25;4938004;28;45442;-39
2023/09/18 19:58:07;;;;;;;;;2.75;2.50;;;;;24.93;48.01;100611.41;4937579;28;45394;-44
2023/09/18 20:00:32;;;;;;;;;1.50;1.50;;;;;24.95;48.32;100613.91;4937848;28;45220;-44
2023/09/18 20:02:58;;;;;;;;;3.25;2.50;;;;;24.93;48.26;100622.00;4937467;28;46025;-43
2023/09/18 20:05:24;;;;;;;;;2.00;1.00;;;;;24.94;47.69;100620.19;4937275;28;45463;-41
2023/09/18 20:07:50;;;;;;;;;2.25;2.25;;;;;24.94;47.75;100617.53;4937922;28;45865;-40
2023/09/18 20:10:18;;;;;;;;;3.00;1.00;;;;;24.93;47.59;100618.50;4937600;28;45645;-42
2023/09/18 20:12:49;;;;;;;;;5.25;2.00;;;;;24.93;48.00;100631.75;4937588;28;46523;-45
2023/09/18 20:15:16;;;;;;;;;3.75;2.00;;;;;24.92;47.99;100632.69;4936835;28;45858;-47
2023/09/18 20:17:42;;;;;;;;;2.00;2.00;;;;;24.92;47.33;100636.22;4937957;28;45349;-44
2023/09/18 20:20:09;;;;;;;;;2.00;2.00;;;;;24.91;47.80;100639.81;4937301;28;45444;-43
2023/09/18 20:22:36;;;;;;;;;2.75;2.00;;;;;24.91;47.32;100645.13;4919957;28;46100;-42
2023/09/18 20:25:01;;;;;;;;;2.00;2.00;;;;;24.90;47.59;100646.09;4937219;28;45445;-42
2023/09/18 20:27:27;;;;;;;;;3.00;3.00;;;;;24.90;47.40;100646.09;4937041;28;45348;-44
2023/09/18 20:29:52;;;;;;;;;1.50;1.50;;;;;24.89;47.41;100649.69;4937332;28;45377;-46
2023/09/18 20:32:19;;;;;;;;;1.25;1.00;;;;;24.89;47.53;100652.34;4936839;28;45312;-44
2023/09/18 20:34:47;;;;;;;;;0.00;0.00;;;;;24.89;47.25;100654.16;4937587;28;45708;-46
2023/09/18 20:37:12;;;;;;;;;4.00;2.00;;;;;24.88;46.90;100653.31;4937301;28;45508;-44
2023/09/18 20:39:38;;;;;;;;;1.50;1.50;;;;;24.87;47.04;100659.56;4936855;28;45367;-42
2023/09/18 20:42:03;;;;;;;;;2.00;2.00;;;;;24.88;47.31;100653.31;4936911;28;46139;-39
2023/09/18 20:44:29;;;;;;;;;3.50;0.00;;;;;24.87;47.06;100659.56;4936664;28;45411;-46
2023/09/18 20:46:54;;;;;;;;;3.00;1.75;;;;;24.86;46.90;100655.22;4937185;28;45410;-42
2023/09/18 20:49:19;;;;;;;;;2.00;1.25;;;;;24.85;46.91;100657.03;4937032;28;45667;-44
2023/09/18 20:51:47;;;;;;;;;3.00;1.75;;;;;24.85;47.05;100658.88;4937260;28;45405;-39
2023/09/18 20:54:13;;;;;;;;;1.50;1.50;;;;;24.85;46.27;100665.00;4936978;28;45410;-44
2023/09/18 20:56:38;;;;;;;;;2.00;1.00;;;;;24.84;46.34;100660.66;4937066;28;45367;-44
2023/09/18 20:59:05;;;;;;;;;2.00;1.00;;;;;24.83;46.94;100666.91;4952476;28;45625;-39
2023/09/18 21:01:31;;;;;;;;;3.00;2.00;;;;;24.83;46.15;100676.69;4937464;28;45236;-42
2023/09/18 21:03:57;;;;;;;;;1.25;1.25;;;;;24.82;45.97;100681.13;4937311;28;45821;-46
2023/09/18 21:06:23;;;;;;;;;2.25;2.25;;;;;24.80;45.99;100685.72;4937372;28;45472;-45
2023/09/18 21:08:50;;;;;;;;;2.50;1.25;;;;;24.80;46.20;100690.16;4937100;28;45359;-44
2023/09/18 21:11:16;;;;;;;;;1.50;1.50;;;;;24.78;46.15;100692.09;4937629;28;46369;-40
2023/09/18 21:13:45;;;;;;;;;0.25;0.25;;;;;24.77;45.76;100690.41;4919594;28;45303;-41
2023/09/18 21:16:14;;;;;;;;;2.75;1.00;;;;;24.77;45.94;100685.09;4920087;28;45192;-45
2023/09/18 21:18:39;;;;;;;;;1.00;1.00;;;;;24.76;45.58;100688.69;4937628;28;45589;-43
2023/09/18 21:21:04;;;;;;;;;2.25;1.00;;;;;24.74;45.44;100695.94;4937158;28;46031;-42
2023/09/18 21:23:30;;;;;;;;;3.25;1.75;;;;;24.72;45.28;100697.88;4937285;28;45377;-46
2023/09/18 21:25:55;;;;;;;;;1.75;1.00;;;;;24.70;44.87;100704.13;4937845;28;46417;-45
2023/09/18 21:28:21;;;;;;;;;1.25;0.25;;;;;24.70;45.22;100706.78;4940737;28;45413;-42
2023/09/18 21:30:46;;;;;;;;;2.00;0.75;;;;;24.68;44.57;100714.00;4940701;28;46936;-42
2023/09/18 21:33:12;;;;;;;;;1.00;1.00;;;;;24.68;44.79;100713.13;4923095;28;45423;-44
2023/09/18 21:35:40;;;;;;;;;1.00;1.00;;;;;24.66;44.61;100718.53;4940489;28;45244;-48
2023/09/18 21:38:05;;;;;;;;;1.50;1.00;;;;;24.66;44.87;100721.16;4940646;28;45246;-43
2023/09/18 21:40:31;;;;;;;;;1.00;1.00;;;;;24.66;44.47;100725.63;4940181;28;45277;-51
2023/09/18 21:42:56;;;;;;;;;4.75;2.00;;;;;24.64;44.66;100731.03;4940112;28;45845;-51
2023/09/18 21:45:22;;;;;;;;;1.50;1.50;;;;;24.64;44.60;100743.47;4923063;28;45368;-48
2023/09/18 21:47:50;;;;;;;;;0.50;0.50;;;;;24.62;44.46;100740.94;4940860;28;45367;-42
2023/09/18 21:50:16;;;;;;;;;1.00;1.00;;;;;24.61;44.18;100738.38;4940224;28;46106;-44
2023/09/18 21:52:42;;;;;;;;;1.50;1.00;;;;;24.60;44.45;100734.91;4940121;28;45433;-52
2023/09/18 21:55:07;;;;;;;;;1.00;1.00;;;;;24.59;44.07;100749.09;4940086;28;45834;-50